createdAt,value
2023-08-13T00:02:20.801Z,80.49
2023-08-13T00:04:47.544Z,80.73
2023-08-13T00:07:14.296Z,80.91
2023-08-13T00:09:43.833Z,81.15
2023-08-13T00:12:10.569Z,81.01
2023-08-13T00:14:37.276Z,80.57
2023-08-13T00:17:04.161Z,80.88
2023-08-13T00:19:30.832Z,81.15
2023-08-13T00:22:07.360Z,80.78
2023-08-13T00:24:44.243Z,81.18
2023-08-13T00:27:11.038Z,81.67
2023-08-13T00:29:39.085Z,80.90
2023-08-13T00:32:05.805Z,80.59
2023-08-13T00:34:32.534Z,81.35
2023-08-13T00:36:59.251Z,81.93
2023-08-13T00:39:25.875Z,82.14
2023-08-13T00:41:54.250Z,81.68
2023-08-13T00:44:21.076Z,82.31
2023-08-13T00:46:47.964Z,82.97
2023-08-13T00:49:15.485Z,82.98
2023-08-13T00:51:42.257Z,83.21
2023-08-13T00:54:11.037Z,83.78
2023-08-13T00:56:38.354Z,83.57
2023-08-13T00:59:06.097Z,82.75
2023-08-13T01:01:32.758Z,81.75
2023-08-13T01:03:59.636Z,81.65
2023-08-13T01:06:44.341Z,81.19
2023-08-13T01:09:17.114Z,82.21
2023-08-13T01:11:59.190Z,82.06
2023-08-13T01:14:44.419Z,81.76
2023-08-13T01:17:12.876Z,82.01
2023-08-13T01:19:39.578Z,81.53
2023-08-13T01:22:06.602Z,82.20
2023-08-13T01:24:33.328Z,82.98
2023-08-13T01:27:17.431Z,83.05
2023-08-13T01:29:53.770Z,80.99
2023-08-13T01:32:25.894Z,81.30
2023-08-13T01:34:52.794Z,81.25
2023-08-13T01:37:21.308Z,81.47
2023-08-13T01:39:49.562Z,81.05
2023-08-13T01:42:16.611Z,81.33
2023-08-13T01:44:43.562Z,80.88
2023-08-13T01:47:10.303Z,81.50
2023-08-13T01:49:36.947Z,81.25
2023-08-13T01:52:03.760Z,81.16
2023-08-13T01:54:30.479Z,82.25
2023-08-13T01:56:57.218Z,82.00
2023-08-13T01:59:24.585Z,82.17
2023-08-13T02:01:51.218Z,83.50
2023-08-13T02:04:17.883Z,83.51
2023-08-13T02:06:44.772Z,83.33
2023-08-13T02:09:11.409Z,83.17
2023-08-13T02:11:38.060Z,82.81
2023-08-13T02:14:05.051Z,83.64
2023-08-13T02:16:31.768Z,84.69
2023-08-13T02:18:58.461Z,84.41
2023-08-13T02:21:25.180Z,85.42
2023-08-13T02:23:51.810Z,85.63
2023-08-13T02:26:18.534Z,85.04
2023-08-13T02:28:46.696Z,84.78
2023-08-13T02:31:13.582Z,85.30
2023-08-13T02:33:40.401Z,84.84
2023-08-13T02:36:07.134Z,83.77
2023-08-13T02:38:33.788Z,84.36
2023-08-13T02:41:00.468Z,85.26
2023-08-13T02:43:32.769Z,85.44
2023-08-13T02:45:59.528Z,85.69
2023-08-13T02:48:26.263Z,84.93
2023-08-13T02:50:53.008Z,84.77
2023-08-13T02:53:19.787Z,85.13
2023-08-13T02:55:46.416Z,84.83
2023-08-13T02:58:13.133Z,84.42
2023-08-13T03:00:39.992Z,84.22
2023-08-13T03:03:06.706Z,85.09
2023-08-13T03:05:33.662Z,85.76
2023-08-13T03:08:00.418Z,86.31
2023-08-13T03:10:27.217Z,85.97
2023-08-13T03:12:53.904Z,85.75
2023-08-13T03:15:20.628Z,86.25
2023-08-13T03:17:47.472Z,85.76
2023-08-13T03:20:14.232Z,86.05
2023-08-13T03:22:40.963Z,85.87
2023-08-13T03:25:08.098Z,85.69
2023-08-13T03:27:34.935Z,85.61
2023-08-13T03:30:01.601Z,85.38
2023-08-13T03:32:29.304Z,84.83
2023-08-13T03:34:56.063Z,85.01
2023-08-13T03:37:22.818Z,84.67
2023-08-13T03:39:49.513Z,83.91
2023-08-13T03:42:16.264Z,84.39
2023-08-13T03:44:43.112Z,84.80
2023-08-13T03:47:10.020Z,84.47
2023-08-13T03:49:36.710Z,83.39
2023-08-13T03:52:04.029Z,83.63
2023-08-13T03:54:31.524Z,83.68
2023-08-13T03:56:58.469Z,83.75
2023-08-13T03:59:25.139Z,83.37
2023-08-13T04:01:51.871Z,84.43
2023-08-13T04:04:18.760Z,84.41
2023-08-13T04:06:46.735Z,84.69
2023-08-13T04:09:13.419Z,85.20
2023-08-13T04:11:40.115Z,84.96
2023-08-13T04:14:06.884Z,84.95
2023-08-13T04:16:33.525Z,84.79
2023-08-13T04:19:00.223Z,84.29
2023-08-13T04:21:27.346Z,83.98
2023-08-13T04:23:57.588Z,84.06
2023-08-13T04:26:25.632Z,83.52
2023-08-13T04:28:52.802Z,82.30
2023-08-13T04:31:21.260Z,82.33
2023-08-13T04:33:50.877Z,84.59
2023-08-13T04:36:17.541Z,84.07
2023-08-13T04:38:44.271Z,83.41
2023-08-13T04:41:10.913Z,83.50
2023-08-13T04:43:37.627Z,83.60
2023-08-13T04:46:04.399Z,83.57
2023-08-13T04:48:49.973Z,82.81
2023-08-13T04:51:17.228Z,82.35
2023-08-13T04:53:44.041Z,82.26
2023-08-13T04:56:10.757Z,81.92
2023-08-13T04:58:38.583Z,79.92
2023-08-13T05:01:05.596Z,76.89
2023-08-13T05:03:32.897Z,74.94
2023-08-13T05:05:59.638Z,74.22
2023-08-13T05:08:26.301Z,73.74
2023-08-13T05:10:53.113Z,73.75
2023-08-13T05:13:19.813Z,72.52
2023-08-13T05:15:46.549Z,71.65
2023-08-13T05:18:13.272Z,71.82
2023-08-13T05:20:39.968Z,71.39
2023-08-13T05:23:06.737Z,71.14
2023-08-13T05:25:39.270Z,71.14
2023-08-13T05:28:08.239Z,70.84
2023-08-13T05:30:37.054Z,70.18
2023-08-13T05:33:04.126Z,69.58
2023-08-13T05:35:30.970Z,68.65
2023-08-13T05:37:57.784Z,68.49
2023-08-13T05:40:24.669Z,67.95
2023-08-13T05:42:51.488Z,66.89
2023-08-13T05:45:19.083Z,66.27
2023-08-13T05:47:47.100Z,65.60
2023-08-13T05:50:13.792Z,65.76
2023-08-13T05:52:40.511Z,64.47
2023-08-13T05:55:07.711Z,63.53
2023-08-13T05:57:34.452Z,62.63
2023-08-13T06:00:01.256Z,62.98
2023-08-13T06:02:27.965Z,62.59
2023-08-13T06:04:54.632Z,61.85
2023-08-13T06:07:21.328Z,61.41
2023-08-13T06:09:47.984Z,60.71
2023-08-13T06:12:14.713Z,58.52
2023-08-13T06:14:43.554Z,57.88
2023-08-13T06:17:14.826Z,57.04
2023-08-13T06:19:43.901Z,56.68
2023-08-13T06:22:11.560Z,54.83
2023-08-13T06:24:38.236Z,55.20
2023-08-13T06:27:05.106Z,55.36
2023-08-13T06:29:31.879Z,54.99
2023-08-13T06:31:58.535Z,54.08
2023-08-13T06:34:25.293Z,54.59
2023-08-13T06:36:52.486Z,53.63
2023-08-13T06:39:19.638Z,54.88
2023-08-13T06:41:47.368Z,54.70
2023-08-13T06:44:24.036Z,54.27
2023-08-13T06:46:51.065Z,52.67
2023-08-13T06:49:20.842Z,51.34
2023-08-13T06:51:50.575Z,50.66
2023-08-13T06:54:17.254Z,50.96
2023-08-13T06:56:44.108Z,50.20
2023-08-13T06:59:12.834Z,50.14
2023-08-13T07:01:39.595Z,50.04
2023-08-13T07:04:07.560Z,49.02
2023-08-13T07:06:34.410Z,48.69
2023-08-13T07:09:02.876Z,47.95
2023-08-13T07:11:29.588Z,47.93
2023-08-13T07:13:58.114Z,46.45
2023-08-13T07:16:25.019Z,46.66
2023-08-13T07:18:54.692Z,47.18
2023-08-13T07:21:21.438Z,46.34
2023-08-13T07:23:48.815Z,46.46
2023-08-13T07:26:15.631Z,44.30
2023-08-13T07:28:42.564Z,45.15
2023-08-13T07:31:09.196Z,43.82
2023-08-13T07:33:35.890Z,44.42
2023-08-13T07:36:06.320Z,44.50
2023-08-13T07:38:34.278Z,44.26
2023-08-13T07:41:02.986Z,43.42
2023-08-13T07:43:29.920Z,42.99
2023-08-13T07:45:56.588Z,42.50
2023-08-13T07:48:24.670Z,40.92
2023-08-13T07:50:51.993Z,41.39
2023-08-13T07:53:18.726Z,41.83
2023-08-13T07:55:47.647Z,41.31
2023-08-13T07:58:15.489Z,40.52
2023-08-13T08:00:42.556Z,41.09
2023-08-13T08:03:10.040Z,40.86
2023-08-13T08:05:37.192Z,40.41
2023-08-13T08:08:06.895Z,41.02
2023-08-13T08:10:33.766Z,40.59
2023-08-13T08:13:00.520Z,39.24
2023-08-13T08:15:27.319Z,37.54
2023-08-13T08:17:54.072Z,38.77
2023-08-13T08:20:20.995Z,34.27
2023-08-13T08:22:47.661Z,34.17
2023-08-13T08:25:14.423Z,35.78
2023-08-13T08:27:41.260Z,37.64
2023-08-13T08:30:08.534Z,34.54
2023-08-13T08:32:36.547Z,33.77
2023-08-13T08:35:04.856Z,33.30
2023-08-13T08:37:33.442Z,32.17
2023-08-13T08:40:00.626Z,33.32
2023-08-13T08:42:27.714Z,33.21
2023-08-13T08:44:54.760Z,32.76
2023-08-13T08:47:24.407Z,32.97
2023-08-13T08:49:53.216Z,33.48
2023-08-13T08:52:20.399Z,32.44
2023-08-13T08:54:49.576Z,32.80
2023-08-13T08:57:16.947Z,32.18
2023-08-13T08:59:45.564Z,31.21
2023-08-13T09:02:13.848Z,31.26
2023-08-13T09:04:40.943Z,31.57
2023-08-13T09:07:08.026Z,32.30
2023-08-13T09:09:34.812Z,31.21
2023-08-13T09:12:02.551Z,31.02
2023-08-13T09:14:29.542Z,31.05
2023-08-13T09:16:57.636Z,31.98
2023-08-13T09:19:26.489Z,31.52
2023-08-13T09:21:59.160Z,31.46
2023-08-13T09:24:37.272Z,31.94
2023-08-13T09:27:06.143Z,31.58
2023-08-13T09:29:33.608Z,30.63
2023-08-13T09:32:01.955Z,30.19
2023-08-13T09:34:30.202Z,30.79
2023-08-13T09:36:58.501Z,30.58
2023-08-13T09:39:30.250Z,29.46
2023-08-13T09:41:57.037Z,29.41
2023-08-13T09:44:29.452Z,29.43
2023-08-13T09:47:00.277Z,30.33
2023-08-13T09:49:32.207Z,30.94
2023-08-13T09:52:10.706Z,29.32
2023-08-13T09:54:48.458Z,29.84
2023-08-13T09:57:22.325Z,29.93
2023-08-13T09:59:50.716Z,29.09
2023-08-13T10:02:20.127Z,29.20
2023-08-13T10:04:47.676Z,29.61
2023-08-13T10:07:14.907Z,30.12
2023-08-13T10:09:42.741Z,29.62
2023-08-13T10:12:11.432Z,29.60
2023-08-13T10:14:38.633Z,28.63
2023-08-13T10:17:07.557Z,28.28
2023-08-13T10:19:41.051Z,28.30
2023-08-13T10:22:11.657Z,28.42
2023-08-13T10:24:39.663Z,27.58
2023-08-13T10:27:06.386Z,27.78
2023-08-13T10:29:38.344Z,27.63
2023-08-13T10:32:15.498Z,27.08
2023-08-13T10:34:47.927Z,28.45
2023-08-13T10:37:20.093Z,28.48
2023-08-13T10:39:48.820Z,27.45
2023-08-13T10:42:27.790Z,27.53
2023-08-13T10:44:54.942Z,26.89
2023-08-13T10:47:24.924Z,26.96
2023-08-13T10:49:51.703Z,27.27
2023-08-13T10:52:18.496Z,27.33
2023-08-13T10:54:45.140Z,27.99
2023-08-13T10:57:11.833Z,27.70
2023-08-13T10:59:43.065Z,27.97
2023-08-13T11:02:12.932Z,28.24
2023-08-13T11:04:44.547Z,27.36
2023-08-13T11:07:11.853Z,27.16
2023-08-13T11:09:41.831Z,26.81
2023-08-13T11:12:12.460Z,25.70
2023-08-13T11:14:41.499Z,26.31
2023-08-13T11:17:08.770Z,27.00
2023-08-13T11:19:35.585Z,26.41
2023-08-13T11:22:03.368Z,26.71
2023-08-13T11:24:34.141Z,26.55
2023-08-13T11:27:03.679Z,26.41
2023-08-13T11:29:31.653Z,25.85
2023-08-13T11:31:59.454Z,25.22
2023-08-13T11:34:26.150Z,25.73
2023-08-13T11:36:56.528Z,25.28
2023-08-13T11:39:24.668Z,25.44
2023-08-13T11:41:52.974Z,25.35
2023-08-13T11:44:20.900Z,25.69
2023-08-13T11:47:02.683Z,25.49
2023-08-13T11:49:29.572Z,25.54
2023-08-13T11:51:57.743Z,25.46
2023-08-13T11:54:25.196Z,25.02
2023-08-13T11:56:52.897Z,25.60
2023-08-13T11:59:26.932Z,25.05
2023-08-13T12:01:57.925Z,25.27
2023-08-13T12:04:26.352Z,24.87
2023-08-13T12:06:54.079Z,25.09
2023-08-13T12:09:20.946Z,24.55
2023-08-13T12:11:47.839Z,26.19
2023-08-13T12:14:14.623Z,24.81
2023-08-13T12:16:41.486Z,24.73
2023-08-13T12:19:08.391Z,24.59
2023-08-13T12:21:36.329Z,23.98
2023-08-13T12:24:05.257Z,25.24
2023-08-13T12:26:33.474Z,26.26
2023-08-13T12:29:00.530Z,25.43
2023-08-13T12:31:28.098Z,25.23
2023-08-13T12:33:54.884Z,24.96
2023-08-13T12:36:22.067Z,26.07
2023-08-13T12:38:49.151Z,25.05
2023-08-13T12:41:19.067Z,24.60
2023-08-13T12:43:51.136Z,25.56
2023-08-13T12:46:17.830Z,24.84
2023-08-13T12:48:44.672Z,24.74
2023-08-13T12:51:11.660Z,25.15
2023-08-13T12:53:39.565Z,25.75
2023-08-13T12:56:06.231Z,24.08
2023-08-13T12:58:34.448Z,24.38
2023-08-13T13:01:01.702Z,24.29
2023-08-13T13:03:30.015Z,24.44
2023-08-13T13:05:57.088Z,24.34
2023-08-13T13:08:26.740Z,24.40
2023-08-13T13:10:55.084Z,24.21
2023-08-13T13:13:21.900Z,24.03
2023-08-13T13:15:48.667Z,24.00
2023-08-13T13:18:15.504Z,24.87
2023-08-13T13:20:42.293Z,24.27
2023-08-13T13:23:09.031Z,24.33
2023-08-13T13:25:39.228Z,24.28
2023-08-13T13:28:06.669Z,23.72
2023-08-13T13:30:33.681Z,24.16
2023-08-13T13:33:02.447Z,24.25
2023-08-13T13:35:29.965Z,24.39
2023-08-13T13:37:57.650Z,25.14
2023-08-13T13:40:27.734Z,24.23
2023-08-13T13:42:55.989Z,24.39
2023-08-13T13:45:26.207Z,24.46
2023-08-13T13:47:52.933Z,24.45
2023-08-13T13:50:19.821Z,24.86
2023-08-13T13:52:47.666Z,24.81
2023-08-13T13:55:14.638Z,23.91
2023-08-13T13:57:41.538Z,23.16
2023-08-13T14:00:08.827Z,23.21
2023-08-13T14:02:36.035Z,23.13
2023-08-13T14:05:04.127Z,24.75
2023-08-13T14:07:31.083Z,24.58
2023-08-13T14:09:57.933Z,23.62
2023-08-13T14:12:24.724Z,24.01
2023-08-13T14:14:51.503Z,23.25
2023-08-13T14:17:18.230Z,23.63
2023-08-13T14:19:45.046Z,23.52
2023-08-13T14:22:11.725Z,23.03
2023-08-13T14:24:38.507Z,23.98
2023-08-13T14:27:05.363Z,24.19
2023-08-13T14:29:32.144Z,23.88
2023-08-13T14:31:58.868Z,24.52
2023-08-13T14:34:25.545Z,24.39
2023-08-13T14:36:52.319Z,24.25
2023-08-13T14:39:19.057Z,23.78
2023-08-13T14:41:45.834Z,23.59
2023-08-13T14:44:15.157Z,24.61
2023-08-13T14:46:42.135Z,23.94
2023-08-13T14:49:08.937Z,24.69
2023-08-13T14:51:35.687Z,24.30
2023-08-13T14:54:02.369Z,24.62
2023-08-13T14:56:29.705Z,24.49
2023-08-13T14:58:56.402Z,24.76
2023-08-13T15:01:23.109Z,25.29
2023-08-13T15:03:49.901Z,24.95
2023-08-13T15:06:16.683Z,24.48
2023-08-13T15:08:44.238Z,24.90
2023-08-13T15:11:11.305Z,25.42
2023-08-13T15:13:38.010Z,24.97
2023-08-13T15:16:05.080Z,24.41
2023-08-13T15:18:31.861Z,24.58
2023-08-13T15:20:58.668Z,25.06
2023-08-13T15:23:25.368Z,25.48
2023-08-13T15:28:21.604Z,25.26
2023-08-13T15:30:48.452Z,25.46
2023-08-13T15:33:15.157Z,25.67
2023-08-13T15:35:53.039Z,25.70
2023-08-13T15:38:22.485Z,25.88
2023-08-13T15:40:49.759Z,25.55
2023-08-13T15:43:16.493Z,25.83
2023-08-13T15:45:43.178Z,26.42
2023-08-13T15:48:09.914Z,26.78
2023-08-13T15:50:36.761Z,26.62
2023-08-13T15:53:03.943Z,27.07
2023-08-13T15:55:31.540Z,26.45
2023-08-13T15:57:58.524Z,26.49
2023-08-13T16:00:25.356Z,26.25
2023-08-13T16:02:52.221Z,26.52
2023-08-13T16:05:18.995Z,27.61
2023-08-13T16:07:47.149Z,27.34
2023-08-13T16:10:13.944Z,27.91
2023-08-13T16:12:40.681Z,28.22
2023-08-13T16:15:09.615Z,28.21
2023-08-13T16:17:43.168Z,28.09
2023-08-13T16:20:13.272Z,27.81
2023-08-13T16:22:41.845Z,27.91
2023-08-13T16:25:10.311Z,28.28
2023-08-13T16:27:37.152Z,28.21
2023-08-13T16:30:05.835Z,27.92
2023-08-13T16:32:33.310Z,27.86
2023-08-13T16:35:00.578Z,28.41
2023-08-13T16:37:27.488Z,29.17
2023-08-13T16:39:54.163Z,29.27
2023-08-13T16:42:21.413Z,29.60
2023-08-13T16:44:48.077Z,29.94
2023-08-13T16:47:15.066Z,29.87
2023-08-13T16:49:41.967Z,29.83
2023-08-13T16:52:09.093Z,29.92
2023-08-13T16:54:35.865Z,29.97
2023-08-13T16:57:02.542Z,30.06
2023-08-13T16:59:29.197Z,30.94
2023-08-13T17:01:55.899Z,30.93
2023-08-13T17:04:22.643Z,31.41
2023-08-13T17:06:49.360Z,31.54
2023-08-13T17:09:16.096Z,31.41
2023-08-13T17:11:42.852Z,31.91
2023-08-13T17:14:09.494Z,32.59
2023-08-13T17:16:36.234Z,33.45
2023-08-13T17:19:03.150Z,35.34
2023-08-13T17:21:29.856Z,34.99
2023-08-13T17:23:56.673Z,36.08
2023-08-13T17:26:24.678Z,35.64
2023-08-13T17:28:53.472Z,37.57
2023-08-13T17:31:20.199Z,37.48
2023-08-13T17:33:47.092Z,38.18
2023-08-13T17:36:13.797Z,39.08
2023-08-13T17:38:40.545Z,39.60
2023-08-13T17:41:07.261Z,39.17
2023-08-13T17:43:34.854Z,40.66
2023-08-13T17:46:01.619Z,42.57
2023-08-13T17:48:28.780Z,43.59
2023-08-13T17:50:55.549Z,44.77
2023-08-13T17:53:22.236Z,44.53
2023-08-13T17:55:48.900Z,45.61
2023-08-13T17:58:15.696Z,45.17
2023-08-13T18:00:42.396Z,44.26
2023-08-13T18:03:09.860Z,44.51
2023-08-13T18:05:37.366Z,45.12
2023-08-13T18:08:14.833Z,45.86
2023-08-13T18:10:42.319Z,46.39
2023-08-13T18:13:09.048Z,47.43
2023-08-13T18:15:35.989Z,49.29
2023-08-13T18:18:02.918Z,49.02
2023-08-13T18:20:29.603Z,49.85
2023-08-13T18:22:56.508Z,49.59
2023-08-13T18:25:23.208Z,50.69
2023-08-13T18:27:50.033Z,51.53
2023-08-13T18:30:17.191Z,51.62
2023-08-13T18:32:45.184Z,51.44
2023-08-13T18:35:12.175Z,50.96
2023-08-13T18:37:39.048Z,52.07
2023-08-13T18:40:10.624Z,53.23
2023-08-13T18:42:41.704Z,54.71
2023-08-13T18:45:08.916Z,54.63
2023-08-13T18:47:35.984Z,55.36
2023-08-13T18:50:03.102Z,55.55
2023-08-13T18:52:29.797Z,55.61
2023-08-13T18:54:56.483Z,56.44
2023-08-13T18:57:23.269Z,56.70
2023-08-13T18:59:50.920Z,56.52
2023-08-13T19:02:18.004Z,56.17
2023-08-13T19:04:44.872Z,56.54
2023-08-13T19:07:11.638Z,56.98
2023-08-13T19:09:38.322Z,57.39
2023-08-13T19:12:05.205Z,58.54
2023-08-13T19:14:32.206Z,58.53
2023-08-13T19:16:58.937Z,59.73
2023-08-13T19:19:25.673Z,59.78
2023-08-13T19:21:52.435Z,60.19
2023-08-13T19:24:19.107Z,59.71
2023-08-13T19:26:48.542Z,59.77
2023-08-13T19:29:15.565Z,60.31
2023-08-13T19:31:42.384Z,60.81
2023-08-13T19:34:09.022Z,60.76
2023-08-13T19:36:35.718Z,60.68
2023-08-13T19:39:02.877Z,61.65
2023-08-13T19:41:29.558Z,61.96
2023-08-13T19:43:56.405Z,61.88
2023-08-13T19:46:23.134Z,62.46
2023-08-13T19:48:49.818Z,63.05
2023-08-13T19:51:16.890Z,63.36
2023-08-13T19:53:46.464Z,64.29
2023-08-13T19:56:13.029Z,64.29
2023-08-13T19:58:39.745Z,64.90
2023-08-13T20:01:06.592Z,65.30
2023-08-13T20:03:33.424Z,65.72
2023-08-13T20:06:00.180Z,66.28
2023-08-13T20:08:26.884Z,66.43
2023-08-13T20:10:53.675Z,66.53
2023-08-13T20:13:20.544Z,66.60
2023-08-13T20:15:48.459Z,66.81
2023-08-13T20:18:15.404Z,66.63
2023-08-13T20:20:42.156Z,66.88
2023-08-13T20:23:08.844Z,67.89
2023-08-13T20:25:35.637Z,66.92
2023-08-13T20:28:02.401Z,67.36
2023-08-13T20:30:29.070Z,67.46
2023-08-13T20:32:56.962Z,67.76
2023-08-13T20:35:23.654Z,67.75
2023-08-13T20:37:50.307Z,69.05
2023-08-13T20:40:17.040Z,68.64
2023-08-13T20:42:43.808Z,69.71
2023-08-13T20:45:11.288Z,69.82
2023-08-13T20:47:38.362Z,69.42
2023-08-13T20:50:07.617Z,69.59
2023-08-13T20:52:43.695Z,69.90
2023-08-13T20:55:10.328Z,69.02
2023-08-13T20:57:36.972Z,70.27
2023-08-13T21:00:08.145Z,70.48
2023-08-13T21:02:34.898Z,71.35
2023-08-13T21:05:01.642Z,71.38
2023-08-13T21:07:28.283Z,71.73
2023-08-13T21:09:55.051Z,71.16
2023-08-13T21:12:21.741Z,70.86
2023-08-13T21:14:48.381Z,71.16
2023-08-13T21:17:16.310Z,71.82
2023-08-13T21:19:43.031Z,70.98
2023-08-13T21:22:09.734Z,72.28
2023-08-13T21:24:36.380Z,72.29
2023-08-13T21:27:03.140Z,72.35
2023-08-13T21:29:29.875Z,72.29
2023-08-13T21:31:57.330Z,72.09
2023-08-13T21:34:24.187Z,71.25
2023-08-13T21:36:50.920Z,72.37
2023-08-13T21:39:18.097Z,72.00
2023-08-13T21:41:44.884Z,72.02
2023-08-13T21:44:11.568Z,72.26
2023-08-13T21:46:38.287Z,72.56
2023-08-13T21:49:05.042Z,72.51
2023-08-13T21:51:31.697Z,72.50
2023-08-13T21:53:58.490Z,72.65
2023-08-13T21:56:25.148Z,73.20
2023-08-13T21:58:51.812Z,72.87
2023-08-13T22:01:19.251Z,72.11
2023-08-13T22:03:46.054Z,72.53
2023-08-13T22:06:12.800Z,72.81
2023-08-13T22:08:39.439Z,71.73
2023-08-13T22:11:06.086Z,72.26
2023-08-13T22:13:32.781Z,72.40
2023-08-13T22:15:59.478Z,74.21
2023-08-13T22:18:26.205Z,74.74
2023-08-13T22:20:52.896Z,75.02
2023-08-13T22:23:19.624Z,75.54
2023-08-13T22:25:46.317Z,75.83
2023-08-13T22:28:13.064Z,75.23
2023-08-13T22:30:39.807Z,75.17
2023-08-13T22:33:07.807Z,75.50
2023-08-13T22:35:34.506Z,75.77
2023-08-13T22:38:01.244Z,76.37
2023-08-13T22:40:27.983Z,76.69
2023-08-13T22:42:54.714Z,76.18
2023-08-13T22:45:21.427Z,76.33
2023-08-13T22:47:49.120Z,75.24
2023-08-13T22:50:16.177Z,74.72
2023-08-13T22:52:43.344Z,75.09
2023-08-13T22:55:11.088Z,75.66
2023-08-13T22:57:38.147Z,75.65
2023-08-13T23:00:06.260Z,75.45
2023-08-13T23:02:32.908Z,75.90
2023-08-13T23:04:59.836Z,76.14
2023-08-13T23:07:26.573Z,76.50
2023-08-13T23:09:54.259Z,76.66
2023-08-13T23:12:21.034Z,76.92
2023-08-13T23:14:48.295Z,76.42
2023-08-13T23:17:14.974Z,76.67
2023-08-13T23:19:41.703Z,77.00
2023-08-13T23:22:10.636Z,76.87
2023-08-13T23:24:37.319Z,76.72
2023-08-13T23:27:04.340Z,76.20
2023-08-13T23:29:31.003Z,75.46
2023-08-13T23:31:57.657Z,75.77
2023-08-13T23:34:24.541Z,75.96
2023-08-13T23:36:51.262Z,75.67
2023-08-13T23:39:17.991Z,76.51
2023-08-13T23:41:50.437Z,76.05
2023-08-13T23:44:17.141Z,76.69
2023-08-13T23:46:43.927Z,76.69
2023-08-13T23:49:10.616Z,77.49
2023-08-13T23:51:37.244Z,78.02
2023-08-13T23:54:04.670Z,78.21
2023-08-13T23:56:31.353Z,77.48
2023-08-13T23:58:58.137Z,76.96
